sensor_id;sensor_type;location;lat;lon;timestamp;P1;durP1;ratioP1;P2;durP2;ratioP2
26774;SDS011;14362;51.902;7.626;2023-06-22T00:03:34;9.50;;;8.20;;
26774;SDS011;14362;51.902;7.626;2023-06-22T00:07:37;10.20;;;8.88;;
26774;SDS011;14362;51.902;7.626;2023-06-22T00:11:40;10.10;;;9.15;;
26774;SDS011;14362;51.902;7.626;2023-06-22T00:15:41;10.80;;;9.70;;
26774;SDS011;14362;51.902;7.626;2023-06-22T00:19:43;10.35;;;9.32;;
26774;SDS011;14362;51.902;7.626;2023-06-22T00:23:46;10.35;;;9.43;;
26774;SDS011;14362;51.902;7.626;2023-06-22T00:27:47;10.90;;;9.90;;
26774;SDS011;14362;51.902;7.626;2023-06-22T00:31:48;11.43;;;10.35;;
26774;SDS011;14362;51.902;7.626;2023-06-22T00:35:50;12.25;;;10.25;;
26774;SDS011;14362;51.902;7.626;2023-06-22T00:39:54;10.90;;;9.80;;
26774;SDS011;14362;51.902;7.626;2023-06-22T00:43:55;10.77;;;9.77;;
26774;SDS011;14362;51.902;7.626;2023-06-22T00:47:57;11.35;;;10.15;;
26774;SDS011;14362;51.902;7.626;2023-06-22T00:51:59;11.80;;;10.60;;
26774;SDS011;14362;51.902;7.626;2023-06-22T00:56:02;11.43;;;10.27;;
26774;SDS011;14362;51.902;7.626;2023-06-22T01:00:04;11.40;;;10.30;;
26774;SDS011;14362;51.902;7.626;2023-06-22T01:04:16;10.73;;;9.73;;
26774;SDS011;14362;51.902;7.626;2023-06-22T01:08:21;11.32;;;10.23;;
26774;SDS011;14362;51.902;7.626;2023-06-22T01:12:34;11.18;;;10.07;;
26774;SDS011;14362;51.902;7.626;2023-06-22T01:16:41;11.82;;;10.40;;
26774;SDS011;14362;51.902;7.626;2023-06-22T01:20:44;11.90;;;10.80;;
26774;SDS011;14362;51.902;7.626;2023-06-22T01:24:50;10.88;;;9.88;;
26774;SDS011;14362;51.902;7.626;2023-06-22T01:28:58;11.07;;;10.10;;
26774;SDS011;14362;51.902;7.626;2023-06-22T01:33:01;11.43;;;10.25;;
26774;SDS011;14362;51.902;7.626;2023-06-22T01:37:06;10.98;;;9.93;;
26774;SDS011;14362;51.902;7.626;2023-06-22T01:41:08;10.93;;;9.63;;
26774;SDS011;14362;51.902;7.626;2023-06-22T01:45:11;10.63;;;9.63;;
26774;SDS011;14362;51.902;7.626;2023-06-22T01:49:13;11.00;;;9.88;;
26774;SDS011;14362;51.902;7.626;2023-06-22T01:53:15;11.65;;;10.45;;
26774;SDS011;14362;51.902;7.626;2023-06-22T01:57:16;11.07;;;9.88;;
26774;SDS011;14362;51.902;7.626;2023-06-22T02:01:20;11.40;;;10.38;;
26774;SDS011;14362;51.902;7.626;2023-06-22T02:05:30;11.75;;;10.65;;
26774;SDS011;14362;51.902;7.626;2023-06-22T02:09:35;13.18;;;11.88;;
26774;SDS011;14362;51.902;7.626;2023-06-22T02:13:39;11.50;;;10.40;;
26774;SDS011;14362;51.902;7.626;2023-06-22T02:17:44;12.13;;;10.95;;
26774;SDS011;14362;51.902;7.626;2023-06-22T02:21:46;11.52;;;10.32;;
26774;SDS011;14362;51.902;7.626;2023-06-22T02:25:47;12.18;;;10.55;;
26774;SDS011;14362;51.902;7.626;2023-06-22T02:29:48;12.50;;;10.40;;
26774;SDS011;14362;51.902;7.626;2023-06-22T02:33:51;11.98;;;10.88;;
26774;SDS011;14362;51.902;7.626;2023-06-22T02:37:53;11.30;;;10.20;;
26774;SDS011;14362;51.902;7.626;2023-06-22T02:41:54;12.10;;;11.00;;
26774;SDS011;14362;51.902;7.626;2023-06-22T02:45:56;12.20;;;11.05;;
26774;SDS011;14362;51.902;7.626;2023-06-22T02:49:58;12.93;;;11.55;;
26774;SDS011;14362;51.902;7.626;2023-06-22T02:54:00;12.13;;;10.93;;
26774;SDS011;14362;51.902;7.626;2023-06-22T02:58:02;12.77;;;11.48;;
26774;SDS011;14362;51.902;7.626;2023-06-22T03:02:05;12.55;;;11.35;;
26774;SDS011;14362;51.902;7.626;2023-06-22T03:06:07;13.07;;;10.98;;
26774;SDS011;14362;51.902;7.626;2023-06-22T03:10:14;13.40;;;12.07;;
26774;SDS011;14362;51.902;7.626;2023-06-22T03:14:16;13.20;;;12.00;;
26774;SDS011;14362;51.902;7.626;2023-06-22T03:18:17;13.52;;;12.23;;
26774;SDS011;14362;51.902;7.626;2023-06-22T03:22:20;13.50;;;12.20;;
26774;SDS011;14362;51.902;7.626;2023-06-22T03:26:21;14.55;;;13.05;;
26774;SDS011;14362;51.902;7.626;2023-06-22T03:30:26;14.10;;;12.80;;
26774;SDS011;14362;51.902;7.626;2023-06-22T03:34:28;13.88;;;12.45;;
26774;SDS011;14362;51.902;7.626;2023-06-22T03:38:35;13.68;;;12.27;;
26774;SDS011;14362;51.902;7.626;2023-06-22T03:42:37;14.52;;;12.45;;
26774;SDS011;14362;51.902;7.626;2023-06-22T03:46:38;14.98;;;13.60;;
26774;SDS011;14362;51.902;7.626;2023-06-22T03:50:39;13.50;;;12.20;;
26774;SDS011;14362;51.902;7.626;2023-06-22T03:54:42;13.35;;;12.15;;
26774;SDS011;14362;51.902;7.626;2023-06-22T03:58:43;14.27;;;12.93;;
26774;SDS011;14362;51.902;7.626;2023-06-22T04:02:45;14.45;;;13.05;;
26774;SDS011;14362;51.902;7.626;2023-06-22T04:06:46;14.57;;;13.18;;
26774;SDS011;14362;51.902;7.626;2023-06-22T04:10:49;12.95;;;11.75;;
26774;SDS011;14362;51.902;7.626;2023-06-22T04:14:50;14.25;;;12.63;;
26774;SDS011;14362;51.902;7.626;2023-06-22T04:18:52;13.65;;;12.30;;
26774;SDS011;14362;51.902;7.626;2023-06-22T04:22:53;13.40;;;12.10;;
26774;SDS011;14362;51.902;7.626;2023-06-22T04:26:56;13.13;;;11.90;;
26774;SDS011;14362;51.902;7.626;2023-06-22T04:30:58;14.00;;;12.52;;
26774;SDS011;14362;51.902;7.626;2023-06-22T04:35:02;13.52;;;12.27;;
26774;SDS011;14362;51.902;7.626;2023-06-22T04:39:05;12.57;;;11.23;;
26774;SDS011;14362;51.902;7.626;2023-06-22T04:43:10;14.85;;;12.77;;
26774;SDS011;14362;51.902;7.626;2023-06-22T04:47:12;12.88;;;11.52;;
26774;SDS011;14362;51.902;7.626;2023-06-22T04:51:13;12.63;;;11.43;;
26774;SDS011;14362;51.902;7.626;2023-06-22T04:55:15;12.32;;;11.05;;
26774;SDS011;14362;51.902;7.626;2023-06-22T04:59:19;11.95;;;10.75;;
26774;SDS011;14362;51.902;7.626;2023-06-22T05:03:20;13.32;;;12.10;;
26774;SDS011;14362;51.902;7.626;2023-06-22T05:07:22;12.32;;;11.13;;
26774;SDS011;14362;51.902;7.626;2023-06-22T05:11:25;15.45;;;11.55;;
26774;SDS011;14362;51.902;7.626;2023-06-22T05:15:28;10.68;;;9.75;;
26774;SDS011;14362;51.902;7.626;2023-06-22T05:19:33;11.23;;;10.02;;
26774;SDS011;14362;51.902;7.626;2023-06-22T05:23:34;11.38;;;10.27;;
26774;SDS011;14362;51.902;7.626;2023-06-22T05:27:36;11.20;;;10.20;;
26774;SDS011;14362;51.902;7.626;2023-06-22T05:31:40;11.40;;;10.25;;
26774;SDS011;14362;51.902;7.626;2023-06-22T05:35:42;11.30;;;10.30;;
26774;SDS011;14362;51.902;7.626;2023-06-22T05:39:43;10.75;;;9.65;;
26774;SDS011;14362;51.902;7.626;2023-06-22T05:43:45;13.25;;;10.30;;
26774;SDS011;14362;51.902;7.626;2023-06-22T05:47:47;10.65;;;9.65;;
26774;SDS011;14362;51.902;7.626;2023-06-22T05:51:49;10.40;;;9.35;;
26774;SDS011;14362;51.902;7.626;2023-06-22T05:55:50;13.20;;;10.15;;
26774;SDS011;14362;51.902;7.626;2023-06-22T05:59:52;10.82;;;9.25;;
26774;SDS011;14362;51.902;7.626;2023-06-22T06:03:55;11.20;;;10.02;;
26774;SDS011;14362;51.902;7.626;2023-06-22T06:07:56;11.05;;;10.05;;
26774;SDS011;14362;51.902;7.626;2023-06-22T06:11:58;11.02;;;9.95;;
26774;SDS011;14362;51.902;7.626;2023-06-22T06:15:59;10.55;;;9.55;;
26774;SDS011;14362;51.902;7.626;2023-06-22T06:20:02;12.32;;;10.93;;
26774;SDS011;14362;51.902;7.626;2023-06-22T06:24:05;12.45;;;10.32;;
26774;SDS011;14362;51.902;7.626;2023-06-22T06:28:06;10.18;;;9.23;;
26774;SDS011;14362;51.902;7.626;2023-06-22T06:32:08;15.18;;;11.30;;
26774;SDS011;14362;51.902;7.626;2023-06-22T06:36:11;11.45;;;10.35;;
26774;SDS011;14362;51.902;7.626;2023-06-22T06:40:13;11.23;;;10.13;;
26774;SDS011;14362;51.902;7.626;2023-06-22T06:44:15;10.73;;;9.65;;
26774;SDS011;14362;51.902;7.626;2023-06-22T06:48:17;11.50;;;10.30;;
26774;SDS011;14362;51.902;7.626;2023-06-22T06:52:20;11.27;;;10.18;;
26774;SDS011;14362;51.902;7.626;2023-06-22T06:56:21;12.85;;;11.13;;
26774;SDS011;14362;51.902;7.626;2023-06-22T07:00:23;12.40;;;10.93;;
26774;SDS011;14362;51.902;7.626;2023-06-22T07:04:25;11.88;;;10.77;;
26774;SDS011;14362;51.902;7.626;2023-06-22T07:08:27;12.13;;;10.32;;
26774;SDS011;14362;51.902;7.626;2023-06-22T07:12:29;14.35;;;12.73;;
26774;SDS011;14362;51.902;7.626;2023-06-22T07:16:31;12.88;;;11.60;;
26774;SDS011;14362;51.902;7.626;2023-06-22T07:20:32;12.38;;;11.20;;
26774;SDS011;14362;51.902;7.626;2023-06-22T07:24:35;13.15;;;11.95;;
26774;SDS011;14362;51.902;7.626;2023-06-22T07:28:37;15.02;;;13.35;;
26774;SDS011;14362;51.902;7.626;2023-06-22T07:32:40;14.23;;;12.15;;
26774;SDS011;14362;51.902;7.626;2023-06-22T07:36:42;12.43;;;11.32;;
26774;SDS011;14362;51.902;7.626;2023-06-22T07:40:45;13.27;;;11.80;;
26774;SDS011;14362;51.902;7.626;2023-06-22T07:44:46;14.70;;;13.07;;
26774;SDS011;14362;51.902;7.626;2023-06-22T07:48:48;13.98;;;12.68;;
26774;SDS011;14362;51.902;7.626;2023-06-22T07:52:49;12.80;;;11.50;;
26774;SDS011;14362;51.902;7.626;2023-06-22T07:56:54;14.90;;;11.50;;
26774;SDS011;14362;51.902;7.626;2023-06-22T08:00:55;13.60;;;11.60;;
26774;SDS011;14362;51.902;7.626;2023-06-22T08:04:56;12.13;;;11.07;;
26774;SDS011;14362;51.902;7.626;2023-06-22T08:08:58;12.88;;;11.57;;
26774;SDS011;14362;51.902;7.626;2023-06-22T08:13:00;13.52;;;12.27;;
26774;SDS011;14362;51.902;7.626;2023-06-22T08:17:02;13.02;;;11.75;;
26774;SDS011;14362;51.902;7.626;2023-06-22T08:21:04;17.52;;;11.60;;
26774;SDS011;14362;51.902;7.626;2023-06-22T08:25:05;13.80;;;12.45;;
26774;SDS011;14362;51.902;7.626;2023-06-22T08:29:09;12.75;;;11.57;;
26774;SDS011;14362;51.902;7.626;2023-06-22T08:33:11;13.07;;;11.88;;
26774;SDS011;14362;51.902;7.626;2023-06-22T08:37:12;12.95;;;11.48;;
26774;SDS011;14362;51.902;7.626;2023-06-22T08:41:14;12.82;;;11.63;;
26774;SDS011;14362;51.902;7.626;2023-06-22T08:45:17;14.23;;;12.85;;
26774;SDS011;14362;51.902;7.626;2023-06-22T08:49:18;13.10;;;11.85;;
26774;SDS011;14362;51.902;7.626;2023-06-22T08:53:19;12.65;;;11.55;;
26774;SDS011;14362;51.902;7.626;2023-06-22T08:57:21;15.20;;;13.57;;
26774;SDS011;14362;51.902;7.626;2023-06-22T09:01:24;14.65;;;13.02;;
26774;SDS011;14362;51.902;7.626;2023-06-22T09:05:25;13.10;;;11.82;;
26774;SDS011;14362;51.902;7.626;2023-06-22T09:09:27;14.25;;;13.05;;
26774;SDS011;14362;51.902;7.626;2023-06-22T09:17:33;14.93;;;13.23;;
26774;SDS011;14362;51.902;7.626;2023-06-22T09:21:35;16.35;;;13.27;;
26774;SDS011;14362;51.902;7.626;2023-06-22T09:25:37;15.10;;;13.43;;
26774;SDS011;14362;51.902;7.626;2023-06-22T09:29:38;14.65;;;13.15;;
26774;SDS011;14362;51.902;7.626;2023-06-22T09:33:41;14.05;;;12.82;;
26774;SDS011;14362;51.902;7.626;2023-06-22T09:37:42;12.60;;;11.40;;
26774;SDS011;14362;51.902;7.626;2023-06-22T09:41:45;14.60;;;13.02;;
26774;SDS011;14362;51.902;7.626;2023-06-22T09:45:46;13.23;;;12.00;;
26774;SDS011;14362;51.902;7.626;2023-06-22T09:49:49;13.30;;;12.00;;
26774;SDS011;14362;51.902;7.626;2023-06-22T09:53:50;13.98;;;12.68;;
26774;SDS011;14362;51.902;7.626;2023-06-22T09:57:52;13.50;;;12.38;;
26774;SDS011;14362;51.902;7.626;2023-06-22T10:01:54;14.80;;;13.50;;
26774;SDS011;14362;51.902;7.626;2023-06-22T10:05:57;14.38;;;13.07;;
26774;SDS011;14362;51.902;7.626;2023-06-22T10:09:58;12.30;;;11.05;;
26774;SDS011;14362;51.902;7.626;2023-06-22T10:14:00;11.93;;;10.82;;
26774;SDS011;14362;51.902;7.626;2023-06-22T10:18:04;13.27;;;11.98;;
26774;SDS011;14362;51.902;7.626;2023-06-22T10:22:07;11.90;;;10.73;;
26774;SDS011;14362;51.902;7.626;2023-06-22T10:26:08;11.88;;;10.68;;
26774;SDS011;14362;51.902;7.626;2023-06-22T10:30:10;12.07;;;10.77;;
26774;SDS011;14362;51.902;7.626;2023-06-22T10:34:13;12.00;;;10.98;;
26774;SDS011;14362;51.902;7.626;2023-06-22T10:38:15;13.00;;;11.70;;
26774;SDS011;14362;51.902;7.626;2023-06-22T10:42:17;12.00;;;10.45;;
26774;SDS011;14362;51.902;7.626;2023-06-22T10:46:18;10.38;;;9.15;;
26774;SDS011;14362;51.902;7.626;2023-06-22T10:50:20;11.48;;;10.38;;
26774;SDS011;14362;51.902;7.626;2023-06-22T10:54:25;15.70;;;12.70;;
26774;SDS011;14362;51.902;7.626;2023-06-22T10:58:26;11.27;;;10.25;;
26774;SDS011;14362;51.902;7.626;2023-06-22T11:02:28;11.93;;;10.73;;
26774;SDS011;14362;51.902;7.626;2023-06-22T11:06:29;14.55;;;11.95;;
26774;SDS011;14362;51.902;7.626;2023-06-22T11:10:32;12.75;;;11.55;;
26774;SDS011;14362;51.902;7.626;2023-06-22T11:14:33;15.30;;;12.20;;
26774;SDS011;14362;51.902;7.626;2023-06-22T11:18:34;12.00;;;10.90;;
26774;SDS011;14362;51.902;7.626;2023-06-22T11:22:36;13.13;;;11.82;;
26774;SDS011;14362;51.902;7.626;2023-06-22T11:26:40;14.73;;;11.60;;
26774;SDS011;14362;51.902;7.626;2023-06-22T11:30:42;14.80;;;13.32;;
26774;SDS011;14362;51.902;7.626;2023-06-22T11:34:43;12.35;;;11.05;;
26774;SDS011;14362;51.902;7.626;2023-06-22T11:38:44;15.13;;;12.93;;
26774;SDS011;14362;51.902;7.626;2023-06-22T11:42:47;13.88;;;12.65;;
26774;SDS011;14362;51.902;7.626;2023-06-22T11:46:48;13.43;;;12.23;;
26774;SDS011;14362;51.902;7.626;2023-06-22T11:50:50;12.45;;;11.35;;
26774;SDS011;14362;51.902;7.626;2023-06-22T11:54:51;12.43;;;11.23;;
26774;SDS011;14362;51.902;7.626;2023-06-22T11:58:54;13.40;;;12.15;;
26774;SDS011;14362;51.902;7.626;2023-06-22T12:02:55;12.82;;;11.57;;
26774;SDS011;14362;51.902;7.626;2023-06-22T12:06:57;12.07;;;10.93;;
26774;SDS011;14362;51.902;7.626;2023-06-22T12:10:58;13.45;;;12.30;;
26774;SDS011;14362;51.902;7.626;2023-06-22T12:15:01;12.15;;;10.98;;
26774;SDS011;14362;51.902;7.626;2023-06-22T12:23:05;11.77;;;10.60;;
26774;SDS011;14362;51.902;7.626;2023-06-22T12:27:06;13.45;;;12.23;;
26774;SDS011;14362;51.902;7.626;2023-06-22T12:31:09;11.38;;;9.85;;
26774;SDS011;14362;51.902;7.626;2023-06-22T12:35:10;13.85;;;12.43;;
26774;SDS011;14362;51.902;7.626;2023-06-22T12:39:13;11.98;;;10.73;;
26774;SDS011;14362;51.902;7.626;2023-06-22T12:43:15;13.40;;;11.85;;
26774;SDS011;14362;51.902;7.626;2023-06-22T12:47:18;13.27;;;11.93;;
26774;SDS011;14362;51.902;7.626;2023-06-22T12:51:20;14.95;;;13.45;;
26774;SDS011;14362;51.902;7.626;2023-06-22T12:55:23;15.38;;;13.70;;
26774;SDS011;14362;51.902;7.626;2023-06-22T12:59:24;17.60;;;15.57;;
26774;SDS011;14362;51.902;7.626;2023-06-22T13:03:27;18.50;;;16.60;;
26774;SDS011;14362;51.902;7.626;2023-06-22T13:07:28;17.20;;;15.48;;
26774;SDS011;14362;51.902;7.626;2023-06-22T13:11:29;19.58;;;17.67;;
26774;SDS011;14362;51.902;7.626;2023-06-22T13:15:31;18.02;;;16.13;;
26774;SDS011;14362;51.902;7.626;2023-06-22T13:19:34;20.85;;;18.77;;
26774;SDS011;14362;51.902;7.626;2023-06-22T13:23:35;20.35;;;18.50;;
26774;SDS011;14362;51.902;7.626;2023-06-22T13:27:36;20.85;;;18.88;;
26774;SDS011;14362;51.902;7.626;2023-06-22T13:31:38;24.95;;;22.45;;
26774;SDS011;14362;51.902;7.626;2023-06-22T13:35:40;26.08;;;23.65;;
26774;SDS011;14362;51.902;7.626;2023-06-22T13:39:42;26.42;;;23.77;;
26774;SDS011;14362;51.902;7.626;2023-06-22T13:43:44;24.60;;;22.40;;
26774;SDS011;14362;51.902;7.626;2023-06-22T13:47:45;17.98;;;16.48;;
26774;SDS011;14362;51.902;7.626;2023-06-22T13:51:48;17.52;;;15.85;;
26774;SDS011;14362;51.902;7.626;2023-06-22T13:55:50;17.38;;;15.85;;
26774;SDS011;14362;51.902;7.626;2023-06-22T13:59:52;15.85;;;14.30;;
26774;SDS011;14362;51.902;7.626;2023-06-22T14:03:53;15.43;;;14.07;;
26774;SDS011;14362;51.902;7.626;2023-06-22T14:07:56;14.50;;;13.27;;
26774;SDS011;14362;51.902;7.626;2023-06-22T14:12:01;14.55;;;13.13;;
26774;SDS011;14362;51.902;7.626;2023-06-22T14:16:04;14.93;;;13.43;;
26774;SDS011;14362;51.902;7.626;2023-06-22T14:20:06;13.77;;;12.48;;
26774;SDS011;14362;51.902;7.626;2023-06-22T14:24:10;13.82;;;12.43;;
26774;SDS011;14362;51.902;7.626;2023-06-22T14:28:11;14.25;;;12.85;;
26774;SDS011;14362;51.902;7.626;2023-06-22T14:32:12;13.27;;;12.00;;
26774;SDS011;14362;51.902;7.626;2023-06-22T14:36:14;13.32;;;12.23;;
26774;SDS011;14362;51.902;7.626;2023-06-22T14:40:17;16.05;;;14.00;;
26774;SDS011;14362;51.902;7.626;2023-06-22T14:44:18;14.05;;;12.50;;
26774;SDS011;14362;51.902;7.626;2023-06-22T14:48:20;13.55;;;12.25;;
26774;SDS011;14362;51.902;7.626;2023-06-22T14:52:21;12.27;;;11.10;;
26774;SDS011;14362;51.902;7.626;2023-06-22T14:56:24;10.75;;;9.45;;
26774;SDS011;14362;51.902;7.626;2023-06-22T15:00:25;11.45;;;9.63;;
26774;SDS011;14362;51.902;7.626;2023-06-22T15:04:27;10.73;;;9.63;;
26774;SDS011;14362;51.902;7.626;2023-06-22T15:08:31;9.88;;;8.90;;
26774;SDS011;14362;51.902;7.626;2023-06-22T15:12:34;9.90;;;8.90;;
26774;SDS011;14362;51.902;7.626;2023-06-22T15:16:35;9.65;;;8.80;;
26774;SDS011;14362;51.902;7.626;2023-06-22T15:20:37;11.20;;;10.10;;
26774;SDS011;14362;51.902;7.626;2023-06-22T15:24:38;14.52;;;10.45;;
26774;SDS011;14362;51.902;7.626;2023-06-22T15:28:41;11.23;;;10.13;;
26774;SDS011;14362;51.902;7.626;2023-06-22T15:32:43;12.75;;;11.55;;
26774;SDS011;14362;51.902;7.626;2023-06-22T15:36:45;13.77;;;12.57;;
26774;SDS011;14362;51.902;7.626;2023-06-22T15:40:46;14.82;;;13.40;;
26774;SDS011;14362;51.902;7.626;2023-06-22T15:44:49;14.40;;;13.10;;
26774;SDS011;14362;51.902;7.626;2023-06-22T15:48:51;14.63;;;13.32;;
26774;SDS011;14362;51.902;7.626;2023-06-22T15:52:52;14.60;;;13.40;;
26774;SDS011;14362;51.902;7.626;2023-06-22T15:56:53;14.45;;;13.15;;
26774;SDS011;14362;51.902;7.626;2023-06-22T16:00:56;16.25;;;14.77;;
26774;SDS011;14362;51.902;7.626;2023-06-22T16:04:58;16.08;;;14.52;;
26774;SDS011;14362;51.902;7.626;2023-06-22T16:08:59;15.73;;;14.18;;
26774;SDS011;14362;51.902;7.626;2023-06-22T16:13:00;17.67;;;16.08;;
26774;SDS011;14362;51.902;7.626;2023-06-22T16:17:04;17.73;;;16.23;;
26774;SDS011;14362;51.902;7.626;2023-06-22T16:21:05;18.07;;;16.37;;
26774;SDS011;14362;51.902;7.626;2023-06-22T16:25:07;19.52;;;17.75;;
26774;SDS011;14362;51.902;7.626;2023-06-22T16:29:09;20.35;;;18.30;;
26774;SDS011;14362;51.902;7.626;2023-06-22T16:33:12;20.63;;;18.60;;
26774;SDS011;14362;51.902;7.626;2023-06-22T16:37:14;22.27;;;20.17;;
26774;SDS011;14362;51.902;7.626;2023-06-22T16:41:15;21.55;;;19.58;;
26774;SDS011;14362;51.902;7.626;2023-06-22T16:45:17;23.45;;;21.35;;
26774;SDS011;14362;51.902;7.626;2023-06-22T16:49:19;24.10;;;20.23;;
26774;SDS011;14362;51.902;7.626;2023-06-22T16:53:21;25.40;;;22.80;;
26774;SDS011;14362;51.902;7.626;2023-06-22T16:57:22;27.23;;;24.73;;
26774;SDS011;14362;51.902;7.626;2023-06-22T17:01:25;27.67;;;25.00;;
26774;SDS011;14362;51.902;7.626;2023-06-22T17:05:28;29.70;;;26.77;;
26774;SDS011;14362;51.902;7.626;2023-06-22T17:09:32;31.23;;;28.30;;
26774;SDS011;14362;51.902;7.626;2023-06-22T17:13:34;31.48;;;28.48;;
26774;SDS011;14362;51.902;7.626;2023-06-22T17:17:36;34.55;;;30.88;;
26774;SDS011;14362;51.902;7.626;2023-06-22T17:21:41;48.88;;;31.52;;
26774;SDS011;14362;51.902;7.626;2023-06-22T17:25:43;36.37;;;32.77;;
26774;SDS011;14362;51.902;7.626;2023-06-22T17:29:46;39.00;;;34.33;;
26774;SDS011;14362;51.902;7.626;2023-06-22T17:33:48;37.78;;;33.88;;
26774;SDS011;14362;51.902;7.626;2023-06-22T17:37:52;35.85;;;32.38;;
26774;SDS011;14362;51.902;7.626;2023-06-22T17:41:54;32.22;;;28.85;;
26774;SDS011;14362;51.902;7.626;2023-06-22T17:45:57;29.75;;;26.55;;
26774;SDS011;14362;51.902;7.626;2023-06-22T17:50:03;30.13;;;27.03;;
26774;SDS011;14362;51.902;7.626;2023-06-22T17:54:06;27.75;;;25.20;;
26774;SDS011;14362;51.902;7.626;2023-06-22T17:58:08;28.00;;;25.20;;
26774;SDS011;14362;51.902;7.626;2023-06-22T18:02:10;25.60;;;23.20;;
26774;SDS011;14362;51.902;7.626;2023-06-22T18:06:12;29.00;;;25.02;;
26774;SDS011;14362;51.902;7.626;2023-06-22T18:10:17;27.55;;;24.83;;
26774;SDS011;14362;51.902;7.626;2023-06-22T18:14:19;26.08;;;23.60;;
26774;SDS011;14362;51.902;7.626;2023-06-22T18:18:21;28.17;;;25.30;;
26774;SDS011;14362;51.902;7.626;2023-06-22T18:22:24;28.65;;;25.60;;
26774;SDS011;14362;51.902;7.626;2023-06-22T18:26:27;28.65;;;25.85;;
26774;SDS011;14362;51.902;7.626;2023-06-22T18:30:29;27.42;;;24.90;;
26774;SDS011;14362;51.902;7.626;2023-06-22T18:34:30;27.08;;;24.40;;
26774;SDS011;14362;51.902;7.626;2023-06-22T18:38:32;26.90;;;24.15;;
26774;SDS011;14362;51.902;7.626;2023-06-22T18:42:39;28.52;;;25.65;;
26774;SDS011;14362;51.902;7.626;2023-06-22T18:46:44;27.15;;;24.40;;
26774;SDS011;14362;51.902;7.626;2023-06-22T18:50:51;27.05;;;24.40;;
26774;SDS011;14362;51.902;7.626;2023-06-22T18:54:52;26.98;;;24.50;;
26774;SDS011;14362;51.902;7.626;2023-06-22T18:58:56;28.38;;;25.48;;
26774;SDS011;14362;51.902;7.626;2023-06-22T19:02:58;27.10;;;24.70;;
26774;SDS011;14362;51.902;7.626;2023-06-22T19:06:59;26.92;;;24.30;;
26774;SDS011;14362;51.902;7.626;2023-06-22T19:11:10;30.65;;;27.52;;
26774;SDS011;14362;51.902;7.626;2023-06-22T19:15:14;29.20;;;26.17;;
26774;SDS011;14362;51.902;7.626;2023-06-22T19:19:16;29.33;;;26.63;;
26774;SDS011;14362;51.902;7.626;2023-06-22T19:23:25;30.25;;;27.15;;
26774;SDS011;14362;51.902;7.626;2023-06-22T19:27:29;29.52;;;26.48;;
26774;SDS011;14362;51.902;7.626;2023-06-22T19:31:32;30.95;;;28.02;;
26774;SDS011;14362;51.902;7.626;2023-06-22T19:35:34;31.05;;;28.05;;
26774;SDS011;14362;51.902;7.626;2023-06-22T19:39:36;29.52;;;26.83;;
26774;SDS011;14362;51.902;7.626;2023-06-22T19:43:37;31.02;;;28.17;;
26774;SDS011;14362;51.902;7.626;2023-06-22T19:47:42;32.22;;;29.05;;
26774;SDS011;14362;51.902;7.626;2023-06-22T19:51:44;31.45;;;28.42;;
26774;SDS011;14362;51.902;7.626;2023-06-22T19:55:46;30.45;;;27.55;;
26774;SDS011;14362;51.902;7.626;2023-06-22T19:59:49;29.92;;;27.02;;
26774;SDS011;14362;51.902;7.626;2023-06-22T20:03:54;31.95;;;28.83;;
26774;SDS011;14362;51.902;7.626;2023-06-22T20:08:01;32.47;;;29.30;;
26774;SDS011;14362;51.902;7.626;2023-06-22T20:12:03;34.75;;;31.33;;
26774;SDS011;14362;51.902;7.626;2023-06-22T20:16:08;34.15;;;30.85;;
26774;SDS011;14362;51.902;7.626;2023-06-22T20:20:19;34.17;;;30.83;;
26774;SDS011;14362;51.902;7.626;2023-06-22T20:24:21;33.40;;;30.20;;
26774;SDS011;14362;51.902;7.626;2023-06-22T20:28:24;32.63;;;29.52;;
26774;SDS011;14362;51.902;7.626;2023-06-22T20:32:26;32.70;;;29.67;;
26774;SDS011;14362;51.902;7.626;2023-06-22T20:36:29;32.45;;;29.40;;
26774;SDS011;14362;51.902;7.626;2023-06-22T20:40:32;31.95;;;28.85;;
26774;SDS011;14362;51.902;7.626;2023-06-22T20:44:33;30.80;;;27.88;;
26774;SDS011;14362;51.902;7.626;2023-06-22T20:48:35;32.65;;;29.13;;
26774;SDS011;14362;51.902;7.626;2023-06-22T20:52:38;31.33;;;28.45;;
26774;SDS011;14362;51.902;7.626;2023-06-22T20:56:41;30.98;;;28.17;;
26774;SDS011;14362;51.902;7.626;2023-06-22T21:00:43;30.88;;;28.00;;
26774;SDS011;14362;51.902;7.626;2023-06-22T21:04:44;33.38;;;30.20;;
26774;SDS011;14362;51.902;7.626;2023-06-22T21:08:50;31.50;;;28.60;;
26774;SDS011;14362;51.902;7.626;2023-06-22T21:12:51;29.95;;;27.08;;
26774;SDS011;14362;51.902;7.626;2023-06-22T21:16:53;19.73;;;18.02;;
26774;SDS011;14362;51.902;7.626;2023-06-22T21:20:54;16.45;;;14.95;;
26774;SDS011;14362;51.902;7.626;2023-06-22T21:25:04;15.57;;;13.98;;
26774;SDS011;14362;51.902;7.626;2023-06-22T21:29:07;13.18;;;11.98;;
26774;SDS011;14362;51.902;7.626;2023-06-22T21:33:09;13.65;;;12.45;;
26774;SDS011;14362;51.902;7.626;2023-06-22T21:37:10;13.95;;;12.75;;
26774;SDS011;14362;51.902;7.626;2023-06-22T21:41:13;12.00;;;10.95;;
26774;SDS011;14362;51.902;7.626;2023-06-22T21:45:15;11.23;;;10.20;;
26774;SDS011;14362;51.902;7.626;2023-06-22T21:49:16;11.02;;;9.93;;
26774;SDS011;14362;51.902;7.626;2023-06-22T21:53:18;9.63;;;8.80;;
26774;SDS011;14362;51.902;7.626;2023-06-22T21:57:20;9.90;;;8.38;;
26774;SDS011;14362;51.902;7.626;2023-06-22T22:01:26;9.40;;;8.50;;
26774;SDS011;14362;51.902;7.626;2023-06-22T22:05:27;10.15;;;9.10;;
26774;SDS011;14362;51.902;7.626;2023-06-22T22:09:29;10.80;;;8.32;;
26774;SDS011;14362;51.902;7.626;2023-06-22T22:13:32;9.13;;;8.32;;
26774;SDS011;14362;51.902;7.626;2023-06-22T22:17:35;8.27;;;7.57;;
26774;SDS011;14362;51.902;7.626;2023-06-22T22:21:37;11.88;;;8.10;;
26774;SDS011;14362;51.902;7.626;2023-06-22T22:25:38;7.80;;;7.10;;
26774;SDS011;14362;51.902;7.626;2023-06-22T22:29:41;6.38;;;5.55;;
26774;SDS011;14362;51.902;7.626;2023-06-22T22:33:42;6.50;;;5.95;;
26774;SDS011;14362;51.902;7.626;2023-06-22T22:37:44;6.47;;;4.95;;
26774;SDS011;14362;51.902;7.626;2023-06-22T22:41:45;4.82;;;4.32;;
26774;SDS011;14362;51.902;7.626;2023-06-22T22:45:48;5.43;;;4.85;;
26774;SDS011;14362;51.902;7.626;2023-06-22T22:49:50;6.28;;;5.68;;
26774;SDS011;14362;51.902;7.626;2023-06-22T22:53:51;9.32;;;6.95;;
26774;SDS011;14362;51.902;7.626;2023-06-22T22:57:53;8.90;;;7.40;;
26774;SDS011;14362;51.902;7.626;2023-06-22T23:01:56;9.93;;;8.35;;
26774;SDS011;14362;51.902;7.626;2023-06-22T23:05:57;11.65;;;8.15;;
26774;SDS011;14362;51.902;7.626;2023-06-22T23:09:58;10.15;;;9.07;;
26774;SDS011;14362;51.902;7.626;2023-06-22T23:14:00;13.18;;;8.20;;
26774;SDS011;14362;51.902;7.626;2023-06-22T23:18:03;10.23;;;7.60;;
26774;SDS011;14362;51.902;7.626;2023-06-22T23:22:04;9.63;;;8.73;;
26774;SDS011;14362;51.902;7.626;2023-06-22T23:26:06;10.27;;;8.95;;
26774;SDS011;14362;51.902;7.626;2023-06-22T23:30:08;11.68;;;10.07;;
26774;SDS011;14362;51.902;7.626;2023-06-22T23:34:11;11.40;;;10.27;;
26774;SDS011;14362;51.902;7.626;2023-06-22T23:38:12;13.05;;;11.63;;
26774;SDS011;14362;51.902;7.626;2023-06-22T23:42:16;12.80;;;11.50;;
26774;SDS011;14362;51.902;7.626;2023-06-22T23:46:18;14.15;;;12.80;;
26774;SDS011;14362;51.902;7.626;2023-06-22T23:50:21;18.48;;;16.88;;